Bookmark and Share
Track history (hours):
 

Federal Rideau

Last reported at 2014-Apr-12 22:33 UTC. Time now 2014-Apr-17 03:55 UTC.
Position N 43°60' W 076°33'.

Length 200 m; draft 6.4 m.

Type: Cargo ship. MMSI: 477734000.

NotesDate/timePositionNaut miles runAvg speedWind from/ knotsBaromVisibWave heightAir tempDewpointWater temp
2014-Apr-12 22:33N 43°60' W 076°33'8 8.4
2014-Apr-12 21:33N 44°06' W 076°25'7 7.1
2014-Apr-12 20:33N 44°11' W 076°19'98 3.4
2014-Apr-11 15:33N 45°08' W 074°25'7 7.4
2014-Apr-11 14:34N 45°13' W 074°17'7 7.4
2014-Apr-11 13:33N 45°14' W 074°07'7 7.0
2014-Apr-11 12:34N 45°16' W 073°57'3 2.9
2014-Apr-11 11:33N 45°18' W 073°56'1 0.8
2014-Apr-11 10:33N 45°19' W 073°55'0 0.1
2014-Apr-11 09:34N 45°19' W 073°55'0 0.4
2014-Apr-11 08:32N 45°19' W 073°55'0 0.0
2014-Apr-11 07:32N 45°19' W 073°55'0 0.0
2014-Apr-11 06:32N 45°19' W 073°55'0 0.0
2014-Apr-11 05:32N 45°19' W 073°55'0 0.0
2014-Apr-11 04:32N 45°19' W 073°55'0 0.0
2014-Apr-11 03:32N 45°19' W 073°55'0 0.0
2014-Apr-11 02:32N 45°19' W 073°55'0 0.0
2014-Apr-11 01:26N 45°19' W 073°55'0 0.0
2014-Apr-11 00:29N 45°19' W 073°55'0 0.0
2014-Apr-10 23:32N 45°19' W 073°55'0 0.0
2014-Apr-10 22:32N 45°19' W 073°55'0 0.0
2014-Apr-10 21:32N 45°19' W 073°55'0 0.0
2014-Apr-10 20:32N 45°19' W 073°55'0 0.0
2014-Apr-10 19:32N 45°19' W 073°55'0 0.0
2014-Apr-10 18:32N 45°19' W 073°55'0 0.0
2014-Apr-10 17:32N 45°19' W 073°55'0 0.0
2014-Apr-10 16:29N 45°19' W 073°55'0 0.4
2014-Apr-10 15:32N 45°20' W 073°55'0 0.3
2014-Apr-10 14:32N 45°20' W 073°55'0 0.1
2014-Apr-10 13:31N 45°20' W 073°55'0 0.0
2014-Apr-10 12:31N 45°20' W 073°55'0 0.0
2014-Apr-10 11:31N 45°20' W 073°55'0 0.1
2014-Apr-10 10:31N 45°20' W 073°54'0 0.0
2014-Apr-10 09:31N 45°20' W 073°55'0 0.0
2014-Apr-10 08:31N 45°20' W 073°55'0 0.0
2014-Apr-10 07:31N 45°20' W 073°55'0 0.0
2014-Apr-10 06:28N 45°20' W 073°55'0 0.0
2014-Apr-10 05:31N 45°20' W 073°55'0 0.0
2014-Apr-10 04:31N 45°20' W 073°55'0 0.0
2014-Apr-10 03:31N 45°20' W 073°55'0 0.0
2014-Apr-10 02:28N 45°20' W 073°55'0 0.0
2014-Apr-10 01:31N 45°20' W 073°55'0 0.1
2014-Apr-10 00:31N 45°20' W 073°54'0 0.0
2014-Apr-09 23:31N 45°20' W 073°54'0 0.0
2014-Apr-09 22:31N 45°20' W 073°54'0 0.0
2014-Apr-09 21:33N 45°20' W 073°54'0 0.0
2014-Apr-09 20:33N 45°20' W 073°55'4 4.0
2014-Apr-09 19:33N 45°22' W 073°50'8 7.8
2014-Apr-09 18:33N 45°24' W 073°39'4 3.7
2014-Apr-09 17:33N 45°24' W 073°34'4 4.3
2014-Apr-09 16:33N 45°28' W 073°30'2 2.3
2014-Apr-09 15:33N 45°30' W 073°31'7 7.0
2014-Apr-09 14:33N 45°37' W 073°30'1 1.4
2014-Apr-09 13:33N 45°38' W 073°29'0 0.0
2014-Apr-09 12:33N 45°38' W 073°29'0 0.0
2014-Apr-09 11:33N 45°38' W 073°29'0 0.0
2014-Apr-09 10:33N 45°38' W 073°29'0 0.0
2014-Apr-09 09:30N 45°38' W 073°29'0 0.0
2014-Apr-09 08:33N 45°38' W 073°29'0 0.0
2014-Apr-09 07:33N 45°38' W 073°29'0 0.0
2014-Apr-09 06:33N 45°38' W 073°29'0 0.0
2014-Apr-09 05:33N 45°38' W 073°29'0 0.0
2014-Apr-09 04:33N 45°38' W 073°29'0 0.0
2014-Apr-09 03:33N 45°38' W 073°29'0 0.4
2014-Apr-09 02:33N 45°39' W 073°29'8 7.7
2014-Apr-09 01:34N 45°45' W 073°23'30 9.9
2014-Apr-08 22:31N 46°09' W 072°57'1111.7
2014-Apr-08 21:33N 46°15' W 072°43'9 9.3
2014-Apr-08 20:33N 46°20' W 072°32'10 9.9
2014-Apr-08 19:33N 46°26' W 072°20'1110.3
2014-Apr-08 18:29N 46°34' W 072°08'  

Dump ship's entire track history

sailing weather and tide predictions

Federal Rideau — VRWG7 — position and weather